sensor_id;sensor_type;location;lat;lon;timestamp;pressure;altitude;pressure_sealevel;temperature;humidity
39411;BME280;26579;43.238;23.124;2023-02-19T00:00:04;97003.75;;;15.93;31.63
39411;BME280;26579;43.238;23.124;2023-02-19T00:02:39;97009.50;;;15.97;31.82
39411;BME280;26579;43.238;23.124;2023-02-19T00:05:04;97012.66;;;16.00;31.58
39411;BME280;26579;43.238;23.124;2023-02-19T00:07:30;97013.47;;;16.01;32.05
39411;BME280;26579;43.238;23.124;2023-02-19T00:09:56;97004.44;;;15.95;31.57
39411;BME280;26579;43.238;23.124;2023-02-19T00:12:22;97012.50;;;16.02;32.09
39411;BME280;26579;43.238;23.124;2023-02-19T00:14:48;97012.44;;;15.94;31.77
39411;BME280;26579;43.238;23.124;2023-02-19T00:17:13;97026.19;;;15.88;32.46
39411;BME280;26579;43.238;23.124;2023-02-19T00:19:39;97025.69;;;15.84;31.29
39411;BME280;26579;43.238;23.124;2023-02-19T00:22:05;97044.06;;;15.84;32.22
39411;BME280;26579;43.238;23.124;2023-02-19T00:24:31;97026.88;;;15.90;30.96
39411;BME280;26579;43.238;23.124;2023-02-19T00:26:56;97032.94;;;15.90;32.34
39411;BME280;26579;43.238;23.124;2023-02-19T00:29:22;97045.25;;;15.90;32.31
39411;BME280;26579;43.238;23.124;2023-02-19T00:31:49;97045.25;;;15.90;32.97
39411;BME280;26579;43.238;23.124;2023-02-19T00:34:14;97055.25;;;15.86;32.30
39411;BME280;26579;43.238;23.124;2023-02-19T00:36:41;97060.97;;;15.81;32.60
39411;BME280;26579;43.238;23.124;2023-02-19T00:39:07;97047.88;;;15.63;32.82
39411;BME280;26579;43.238;23.124;2023-02-19T00:41:35;97071.09;;;15.58;32.49
39411;BME280;26579;43.238;23.124;2023-02-19T00:44:03;97076.91;;;15.62;32.46
39411;BME280;26579;43.238;23.124;2023-02-19T00:46:33;97086.72;;;15.60;32.46
39411;BME280;26579;43.238;23.124;2023-02-19T00:49:00;97082.44;;;15.59;31.17
39411;BME280;26579;43.238;23.124;2023-02-19T00:51:29;97102.84;;;15.65;30.75
39411;BME280;26579;43.238;23.124;2023-02-19T00:53:55;97099.16;;;15.76;30.84
39411;BME280;26579;43.238;23.124;2023-02-19T00:56:21;97079.94;;;15.75;30.56
39411;BME280;26579;43.238;23.124;2023-02-19T00:58:48;97105.63;;;15.90;30.39
39411;BME280;26579;43.238;23.124;2023-02-19T01:01:14;97098.78;;;15.97;30.51
39411;BME280;26579;43.238;23.124;2023-02-19T01:03:40;97098.63;;;15.98;30.36
39411;BME280;26579;43.238;23.124;2023-02-19T01:06:07;97098.50;;;16.00;30.63
39411;BME280;26579;43.238;23.124;2023-02-19T01:08:34;97096.81;;;15.99;31.11
39411;BME280;26579;43.238;23.124;2023-02-19T01:11:01;97091.38;;;15.92;31.06
39411;BME280;26579;43.238;23.124;2023-02-19T01:13:28;97096.47;;;15.94;31.45
39411;BME280;26579;43.238;23.124;2023-02-19T01:16:05;97102.69;;;15.93;31.98
39411;BME280;26579;43.238;23.124;2023-02-19T01:18:32;97074.09;;;15.63;31.65
39411;BME280;26579;43.238;23.124;2023-02-19T01:20:58;97094.22;;;15.73;31.55
39411;BME280;26579;43.238;23.124;2023-02-19T01:23:24;97094.06;;;15.74;32.61
39411;BME280;26579;43.238;23.124;2023-02-19T01:25:50;97081.91;;;15.55;33.83
39411;BME280;26579;43.238;23.124;2023-02-19T01:28:15;97077.69;;;15.36;34.00
39411;BME280;26579;43.238;23.124;2023-02-19T01:30:41;97072.59;;;15.17;33.41
39411;BME280;26579;43.238;23.124;2023-02-19T01:33:07;97062.56;;;15.12;33.99
39411;BME280;26579;43.238;23.124;2023-02-19T01:35:36;97062.56;;;14.94;34.29
39411;BME280;26579;43.238;23.124;2023-02-19T01:38:02;97077.69;;;15.01;34.76
39411;BME280;26579;43.238;23.124;2023-02-19T01:40:28;97081.50;;;14.88;34.67
39411;BME280;26579;43.238;23.124;2023-02-19T01:42:54;97074.41;;;14.81;35.20
39411;BME280;26579;43.238;23.124;2023-02-19T01:48:05;97078.75;;;14.72;35.13
39411;BME280;26579;43.238;23.124;2023-02-19T01:50:35;97089.34;;;14.53;36.15
39411;BME280;26579;43.238;23.124;2023-02-19T01:53:05;97087.28;;;14.46;36.13
39411;BME280;26579;43.238;23.124;2023-02-19T01:55:33;97091.13;;;14.42;36.54
39411;BME280;26579;43.238;23.124;2023-02-19T01:58:00;97100.06;;;14.22;37.34
39411;BME280;26579;43.238;23.124;2023-02-19T02:00:27;97098.31;;;14.13;36.21
39411;BME280;26579;43.238;23.124;2023-02-19T02:02:55;97103.81;;;14.10;36.96
39411;BME280;26579;43.238;23.124;2023-02-19T02:05:43;97096.50;;;14.13;37.40
39411;BME280;26579;43.238;23.124;2023-02-19T02:08:12;97104.41;;;14.03;36.88
39411;BME280;26579;43.238;23.124;2023-02-19T02:10:39;97104.28;;;13.95;36.74
39411;BME280;26579;43.238;23.124;2023-02-19T02:13:04;97108.66;;;14.04;35.64
39411;BME280;26579;43.238;23.124;2023-02-19T02:16:05;97101.78;;;14.03;36.23
39411;BME280;26579;43.238;23.124;2023-02-19T02:18:57;97101.22;;;14.10;35.67
39411;BME280;26579;43.238;23.124;2023-02-19T02:21:52;97092.94;;;14.14;35.57
39411;BME280;26579;43.238;23.124;2023-02-19T02:25:32;97104.72;;;14.28;34.86
39411;BME280;26579;43.238;23.124;2023-02-19T02:30:56;97112.09;;;14.42;33.99
39411;BME280;26579;43.238;23.124;2023-02-19T02:36:40;97128.63;;;14.53;35.37
39411;BME280;26579;43.238;23.124;2023-02-19T02:39:08;97105.59;;;14.46;34.46
39411;BME280;26579;43.238;23.124;2023-02-19T02:41:42;97110.69;;;14.58;34.12
39411;BME280;26579;43.238;23.124;2023-02-19T02:44:09;97101.88;;;14.49;34.31
39411;BME280;26579;43.238;23.124;2023-02-19T02:46:38;97118.53;;;14.58;34.43
39411;BME280;26579;43.238;23.124;2023-02-19T02:49:09;97128.16;;;14.67;34.00
39411;BME280;26579;43.238;23.124;2023-02-19T02:51:49;97136.53;;;14.70;34.82
39411;BME280;26579;43.238;23.124;2023-02-19T02:54:31;97145.81;;;14.65;34.92
39411;BME280;26579;43.238;23.124;2023-02-19T02:57:02;97151.19;;;14.63;35.58
39411;BME280;26579;43.238;23.124;2023-02-19T02:59:36;97146.25;;;14.60;35.17
39411;BME280;26579;43.238;23.124;2023-02-19T03:02:16;97129.19;;;14.46;36.06
39411;BME280;26579;43.238;23.124;2023-02-19T03:07:18;97148.38;;;14.37;35.37
39411;BME280;26579;43.238;23.124;2023-02-19T03:09:43;97152.13;;;14.35;34.63
39411;BME280;26579;43.238;23.124;2023-02-19T03:12:13;97142.56;;;14.43;34.50
39411;BME280;26579;43.238;23.124;2023-02-19T03:14:49;97148.47;;;14.55;33.99
39411;BME280;26579;43.238;23.124;2023-02-19T03:17:38;97154.63;;;14.64;33.95
39411;BME280;26579;43.238;23.124;2023-02-19T03:20:09;97142.50;;;14.63;33.95
39411;BME280;26579;43.238;23.124;2023-02-19T03:22:37;97154.44;;;14.75;33.89
39411;BME280;26579;43.238;23.124;2023-02-19T03:25:11;97147.19;;;14.69;33.83
39411;BME280;26579;43.238;23.124;2023-02-19T03:27:40;97165.97;;;14.82;34.07
39411;BME280;26579;43.238;23.124;2023-02-19T03:30:15;97172.78;;;14.75;33.65
39411;BME280;26579;43.238;23.124;2023-02-19T03:32:50;97172.22;;;14.81;33.68
39411;BME280;26579;43.238;23.124;2023-02-19T03:35:24;97174.66;;;14.83;33.64
39411;BME280;26579;43.238;23.124;2023-02-19T03:38:13;97179.53;;;14.78;34.47
39411;BME280;26579;43.238;23.124;2023-02-19T03:40:49;97174.03;;;14.71;34.69
39411;BME280;26579;43.238;23.124;2023-02-19T03:43:30;97176.94;;;14.68;34.96
39411;BME280;26579;43.238;23.124;2023-02-19T03:46:13;97183.06;;;14.59;35.38
39411;BME280;26579;43.238;23.124;2023-02-19T03:48:52;97187.53;;;14.39;36.12
39411;BME280;26579;43.238;23.124;2023-02-19T03:54:04;97206.75;;;14.10;37.07
39411;BME280;26579;43.238;23.124;2023-02-19T03:56:41;97217.09;;;14.02;37.26
39411;BME280;26579;43.238;23.124;2023-02-19T03:59:12;97200.34;;;13.85;37.29
39411;BME280;26579;43.238;23.124;2023-02-19T04:01:49;97194.97;;;13.77;37.64
39411;BME280;26579;43.238;23.124;2023-02-19T04:04:33;97203.22;;;13.63;38.88
39411;BME280;26579;43.238;23.124;2023-02-19T04:07:00;97225.41;;;13.58;38.66
39411;BME280;26579;43.238;23.124;2023-02-19T04:09:35;97228.44;;;13.44;38.93
39411;BME280;26579;43.238;23.124;2023-02-19T04:12:06;97243.09;;;13.26;39.31
39411;BME280;26579;43.238;23.124;2023-02-19T04:17:11;97245.69;;;13.16;39.87
39411;BME280;26579;43.238;23.124;2023-02-19T04:19:39;97239.72;;;13.04;40.48
39411;BME280;26579;43.238;23.124;2023-02-19T04:22:07;97248.75;;;12.90;40.42
39411;BME280;26579;43.238;23.124;2023-02-19T04:24:40;97255.34;;;12.85;40.60
39411;BME280;26579;43.238;23.124;2023-02-19T04:27:08;97250.34;;;12.72;40.78
39411;BME280;26579;43.238;23.124;2023-02-19T04:29:34;97232.72;;;12.64;41.00
39411;BME280;26579;43.238;23.124;2023-02-19T04:32:00;97255.56;;;12.62;41.47
39411;BME280;26579;43.238;23.124;2023-02-19T04:34:26;97240.34;;;12.46;41.38
39411;BME280;26579;43.238;23.124;2023-02-19T04:36:52;97263.84;;;12.46;41.55
39411;BME280;26579;43.238;23.124;2023-02-19T04:39:18;97256.38;;;12.42;42.07
39411;BME280;26579;43.238;23.124;2023-02-19T04:41:44;97253.09;;;12.40;42.09
39411;BME280;26579;43.238;23.124;2023-02-19T04:44:10;97234.88;;;12.29;42.26
39411;BME280;26579;43.238;23.124;2023-02-19T04:46:35;97252.19;;;12.30;42.34
39411;BME280;26579;43.238;23.124;2023-02-19T04:49:01;97256.84;;;12.26;42.22
39411;BME280;26579;43.238;23.124;2023-02-19T04:51:27;97261.00;;;12.29;42.74
39411;BME280;26579;43.238;23.124;2023-02-19T04:53:53;97246.78;;;12.21;42.52
39411;BME280;26579;43.238;23.124;2023-02-19T04:56:18;97253.94;;;12.19;43.25
39411;BME280;26579;43.238;23.124;2023-02-19T04:58:44;97258.44;;;12.17;43.10
39411;BME280;26579;43.238;23.124;2023-02-19T05:01:10;97234.50;;;11.91;43.38
39411;BME280;26579;43.238;23.124;2023-02-19T05:03:36;97268.94;;;12.06;44.01
39411;BME280;26579;43.238;23.124;2023-02-19T05:06:08;97267.22;;;11.95;43.70
39411;BME280;26579;43.238;23.124;2023-02-19T05:08:35;97258.97;;;11.79;44.36
39411;BME280;26579;43.238;23.124;2023-02-19T05:11:02;97264.28;;;11.77;44.76
39411;BME280;26579;43.238;23.124;2023-02-19T05:13:29;97258.19;;;11.67;44.93
39411;BME280;26579;43.238;23.124;2023-02-19T05:16:06;97271.09;;;11.69;45.20
39411;BME280;26579;43.238;23.124;2023-02-19T05:18:34;97263.41;;;11.67;44.65
39411;BME280;26579;43.238;23.124;2023-02-19T05:21:00;97272.06;;;11.68;45.28
39411;BME280;26579;43.238;23.124;2023-02-19T05:23:26;97271.81;;;11.71;45.19
39411;BME280;26579;43.238;23.124;2023-02-19T05:25:52;97270.28;;;11.57;45.07
39411;BME280;26579;43.238;23.124;2023-02-19T05:28:19;97284.63;;;11.63;45.12
39411;BME280;26579;43.238;23.124;2023-02-19T05:30:50;97290.53;;;11.76;45.03
39411;BME280;26579;43.238;23.124;2023-02-19T05:33:18;97285.16;;;11.77;45.05
39411;BME280;26579;43.238;23.124;2023-02-19T05:35:46;97270.84;;;11.72;45.22
39411;BME280;26579;43.238;23.124;2023-02-19T05:38:12;97287.34;;;11.72;45.16
39411;BME280;26579;43.238;23.124;2023-02-19T05:40:39;97291.59;;;11.73;45.32
39411;BME280;26579;43.238;23.124;2023-02-19T05:43:06;97296.56;;;11.76;45.16
39411;BME280;26579;43.238;23.124;2023-02-19T05:45:32;97299.50;;;11.83;45.31
39411;BME280;26579;43.238;23.124;2023-02-19T05:47:58;97305.91;;;11.90;45.35
39411;BME280;26579;43.238;23.124;2023-02-19T05:50:24;97290.50;;;11.87;45.32
39411;BME280;26579;43.238;23.124;2023-02-19T05:52:50;97298.41;;;11.97;45.21
39411;BME280;26579;43.238;23.124;2023-02-19T05:55:16;97301.59;;;12.00;45.19
39411;BME280;26579;43.238;23.124;2023-02-19T05:57:43;97307.53;;;12.03;45.10
39411;BME280;26579;43.238;23.124;2023-02-19T06:00:14;97307.16;;;12.07;45.17
39411;BME280;26579;43.238;23.124;2023-02-19T06:02:40;97310.44;;;12.09;45.32
39411;BME280;26579;43.238;23.124;2023-02-19T06:05:07;97306.41;;;12.16;45.21
39411;BME280;26579;43.238;23.124;2023-02-19T06:07:33;97302.97;;;12.16;45.63
39411;BME280;26579;43.238;23.124;2023-02-19T06:09:59;97313.25;;;12.17;45.93
39411;BME280;26579;43.238;23.124;2023-02-19T06:12:25;97310.44;;;12.09;45.88
39411;BME280;26579;43.238;23.124;2023-02-19T06:14:51;97304.41;;;12.09;46.25
39411;BME280;26579;43.238;23.124;2023-02-19T06:17:16;97306.50;;;12.15;45.53
39411;BME280;26579;43.238;23.124;2023-02-19T06:19:42;97270.94;;;12.14;45.89
39411;BME280;26579;43.238;23.124;2023-02-19T06:22:08;97296.50;;;12.41;45.48
39411;BME280;26579;43.238;23.124;2023-02-19T06:24:34;97298.72;;;12.66;44.63
39411;BME280;26579;43.238;23.124;2023-02-19T06:27:00;97319.78;;;13.05;44.22
39411;BME280;26579;43.238;23.124;2023-02-19T06:29:26;97317.03;;;13.38;43.47
39411;BME280;26579;43.238;23.124;2023-02-19T06:31:51;97323.88;;;13.89;42.43
39411;BME280;26579;43.238;23.124;2023-02-19T06:34:17;97327.66;;;14.82;40.63
39411;BME280;26579;43.238;23.124;2023-02-19T06:36:43;97327.63;;;15.56;39.02
39411;BME280;26579;43.238;23.124;2023-02-19T06:39:09;97324.06;;;15.75;38.60
39411;BME280;26579;43.238;23.124;2023-02-19T06:41:35;97324.03;;;16.03;38.18
39411;BME280;26579;43.238;23.124;2023-02-19T06:44:00;97307.41;;;16.64;36.90
39411;BME280;26579;43.238;23.124;2023-02-19T06:46:26;97305.69;;;17.50;35.46
39411;BME280;26579;43.238;23.124;2023-02-19T06:48:52;97305.50;;;18.26;33.94
39411;BME280;26579;43.238;23.124;2023-02-19T06:51:18;97310.94;;;18.74;33.42
39411;BME280;26579;43.238;23.124;2023-02-19T06:53:45;97309.69;;;19.17;32.29
39411;BME280;26579;43.238;23.124;2023-02-19T06:56:31;97310.56;;;20.03;31.33
39411;BME280;26579;43.238;23.124;2023-02-19T06:58:59;97314.31;;;20.55;29.83
39411;BME280;26579;43.238;23.124;2023-02-19T07:01:26;97307.72;;;21.03;29.38
39411;BME280;26579;43.238;23.124;2023-02-19T07:03:52;97306.75;;;21.92;28.51
39411;BME280;26579;43.238;23.124;2023-02-19T07:06:22;97298.09;;;21.62;28.56
39411;BME280;26579;43.238;23.124;2023-02-19T07:08:49;97299.22;;;23.23;26.58
39411;BME280;26579;43.238;23.124;2023-02-19T07:11:15;97298.66;;;23.27;26.16
39411;BME280;26579;43.238;23.124;2023-02-19T07:13:41;97285.81;;;23.44;26.65
39411;BME280;26579;43.238;23.124;2023-02-19T07:16:08;97304.47;;;23.51;25.93
39411;BME280;26579;43.238;23.124;2023-02-19T07:18:34;97290.13;;;24.20;25.23
39411;BME280;26579;43.238;23.124;2023-02-19T07:21:07;97306.56;;;25.55;23.25
39411;BME280;26579;43.238;23.124;2023-02-19T07:23:33;97307.13;;;24.39;24.14
39411;BME280;26579;43.238;23.124;2023-02-19T07:26:00;97301.47;;;22.91;26.09
39411;BME280;26579;43.238;23.124;2023-02-19T07:28:26;97319.63;;;22.88;26.28
39411;BME280;26579;43.238;23.124;2023-02-19T07:30:52;97315.13;;;22.60;27.07
39411;BME280;26579;43.238;23.124;2023-02-19T07:33:18;97301.88;;;22.88;26.36
39411;BME280;26579;43.238;23.124;2023-02-19T07:35:47;97299.59;;;22.29;26.62
39411;BME280;26579;43.238;23.124;2023-02-19T07:38:18;97304.69;;;22.30;26.40
39411;BME280;26579;43.238;23.124;2023-02-19T07:40:59;97296.03;;;23.34;24.94
39411;BME280;26579;43.238;23.124;2023-02-19T07:43:27;97294.69;;;23.65;24.79
39411;BME280;26579;43.238;23.124;2023-02-19T07:45:53;97295.69;;;24.52;24.07
39411;BME280;26579;43.238;23.124;2023-02-19T07:48:19;97282.16;;;24.80;23.32
39411;BME280;26579;43.238;23.124;2023-02-19T07:50:52;97279.72;;;24.78;23.44
39411;BME280;26579;43.238;23.124;2023-02-19T07:53:18;97275.22;;;24.59;23.58
39411;BME280;26579;43.238;23.124;2023-02-19T07:55:44;97270.63;;;23.73;24.32
39411;BME280;26579;43.238;23.124;2023-02-19T07:58:10;97265.13;;;23.88;24.51
39411;BME280;26579;43.238;23.124;2023-02-19T08:00:36;97278.66;;;24.20;24.18
39411;BME280;26579;43.238;23.124;2023-02-19T08:03:01;97277.84;;;23.44;24.58
39411;BME280;26579;43.238;23.124;2023-02-19T08:05:29;97261.78;;;23.66;24.52
39411;BME280;26579;43.238;23.124;2023-02-19T08:07:59;97268.63;;;23.95;24.12
39411;BME280;26579;43.238;23.124;2023-02-19T08:10:25;97263.56;;;23.39;24.84
39411;BME280;26579;43.238;23.124;2023-02-19T08:12:58;97259.47;;;24.17;24.00
39411;BME280;26579;43.238;23.124;2023-02-19T08:15:24;97257.94;;;23.14;25.04
39411;BME280;26579;43.238;23.124;2023-02-19T08:17:50;97263.81;;;23.57;25.12
39411;BME280;26579;43.238;23.124;2023-02-19T08:20:16;97263.34;;;24.35;23.48
39411;BME280;26579;43.238;23.124;2023-02-19T08:22:42;97235.09;;;24.34;23.65
39411;BME280;26579;43.238;23.124;2023-02-19T08:25:07;97241.25;;;24.41;23.47
39411;BME280;26579;43.238;23.124;2023-02-19T08:27:33;97242.81;;;23.14;25.43
39411;BME280;26579;43.238;23.124;2023-02-19T08:30:00;97238.00;;;24.52;24.02
39411;BME280;26579;43.238;23.124;2023-02-19T08:32:26;97249.47;;;26.08;21.91
39411;BME280;26579;43.238;23.124;2023-02-19T08:34:51;97263.72;;;25.95;22.21
39411;BME280;26579;43.238;23.124;2023-02-19T08:37:18;97266.94;;;26.79;21.22
39411;BME280;26579;43.238;23.124;2023-02-19T08:39:43;97260.44;;;27.48;20.35
39411;BME280;26579;43.238;23.124;2023-02-19T08:42:09;97262.28;;;27.96;19.83
39411;BME280;26579;43.238;23.124;2023-02-19T08:44:35;97253.97;;;28.28;19.58
39411;BME280;26579;43.238;23.124;2023-02-19T08:47:02;97246.72;;;29.92;17.80
39411;BME280;26579;43.238;23.124;2023-02-19T08:49:28;97254.81;;;30.93;17.23
39411;BME280;26579;43.238;23.124;2023-02-19T08:51:54;97237.53;;;31.77;16.10
39411;BME280;26579;43.238;23.124;2023-02-19T08:54:20;97254.34;;;31.40;16.61
39411;BME280;26579;43.238;23.124;2023-02-19T08:56:45;97252.56;;;32.00;16.01
39411;BME280;26579;43.238;23.124;2023-02-19T08:59:11;97249.97;;;32.10;15.88
39411;BME280;26579;43.238;23.124;2023-02-19T09:01:37;97237.03;;;32.44;15.36
39411;BME280;26579;43.238;23.124;2023-02-19T09:04:02;97237.56;;;32.09;15.38
39411;BME280;26579;43.238;23.124;2023-02-19T09:06:28;97220.84;;;32.07;15.85
39411;BME280;26579;43.238;23.124;2023-02-19T09:08:54;97243.66;;;31.06;16.15
39411;BME280;26579;43.238;23.124;2023-02-19T09:11:19;97236.94;;;31.48;15.66
39411;BME280;26579;43.238;23.124;2023-02-19T09:13:45;97228.50;;;30.95;16.17
39411;BME280;26579;43.238;23.124;2023-02-19T09:16:11;97228.81;;;31.92;15.98
39411;BME280;26579;43.238;23.124;2023-02-19T09:18:37;97225.47;;;31.57;16.65
39411;BME280;26579;43.238;23.124;2023-02-19T09:21:04;97228.69;;;32.09;16.11
39411;BME280;26579;43.238;23.124;2023-02-19T09:23:37;97224.16;;;31.87;15.69
39411;BME280;26579;43.238;23.124;2023-02-19T09:26:09;97210.63;;;31.82;15.74
39411;BME280;26579;43.238;23.124;2023-02-19T09:28:35;97208.66;;;31.45;16.51
39411;BME280;26579;43.238;23.124;2023-02-19T09:31:05;97215.16;;;30.66;16.88
39411;BME280;26579;43.238;23.124;2023-02-19T09:33:31;97209.25;;;29.40;17.33
39411;BME280;26579;43.238;23.124;2023-02-19T09:36:00;97209.31;;;28.52;18.72
39411;BME280;26579;43.238;23.124;2023-02-19T09:38:26;97190.69;;;27.80;19.26
39411;BME280;26579;43.238;23.124;2023-02-19T09:40:52;97203.16;;;27.26;19.82
39411;BME280;26579;43.238;23.124;2023-02-19T09:43:20;97214.03;;;26.01;20.59
39411;BME280;26579;43.238;23.124;2023-02-19T09:45:58;97205.09;;;25.50;21.28
39411;BME280;26579;43.238;23.124;2023-02-19T09:48:25;97206.00;;;26.26;20.76
39411;BME280;26579;43.238;23.124;2023-02-19T09:50:52;97178.97;;;27.21;20.63
39411;BME280;26579;43.238;23.124;2023-02-19T09:53:21;97190.22;;;27.83;19.65
39411;BME280;26579;43.238;23.124;2023-02-19T09:55:49;97201.16;;;27.51;19.57
39411;BME280;26579;43.238;23.124;2023-02-19T10:00:46;97202.84;;;26.60;20.62
39411;BME280;26579;43.238;23.124;2023-02-19T10:03:35;97174.88;;;26.81;20.51
39411;BME280;26579;43.238;23.124;2023-02-19T10:06:06;97185.03;;;27.58;20.10
39411;BME280;26579;43.238;23.124;2023-02-19T10:08:35;97179.97;;;27.38;19.73
39411;BME280;26579;43.238;23.124;2023-02-19T10:11:02;97177.16;;;27.33;20.47
39411;BME280;26579;43.238;23.124;2023-02-19T10:13:36;97171.88;;;27.57;19.92
39411;BME280;26579;43.238;23.124;2023-02-19T10:16:06;97175.97;;;27.59;19.74
39411;BME280;26579;43.238;23.124;2023-02-19T10:18:40;97154.53;;;28.01;19.78
39411;BME280;26579;43.238;23.124;2023-02-19T10:21:18;97159.59;;;27.67;19.24
39411;BME280;26579;43.238;23.124;2023-02-19T10:23:47;97156.44;;;27.10;20.13
39411;BME280;26579;43.238;23.124;2023-02-19T10:26:14;97153.44;;;26.88;20.63
39411;BME280;26579;43.238;23.124;2023-02-19T10:28:40;97130.78;;;27.39;19.85
39411;BME280;26579;43.238;23.124;2023-02-19T10:31:17;97122.16;;;27.07;19.83
39411;BME280;26579;43.238;23.124;2023-02-19T10:33:54;97125.88;;;27.24;19.20
39411;BME280;26579;43.238;23.124;2023-02-19T10:36:39;97130.16;;;27.25;19.76
39411;BME280;26579;43.238;23.124;2023-02-19T10:41:59;97113.56;;;26.56;20.75
39411;BME280;26579;43.238;23.124;2023-02-19T10:44:37;97097.81;;;26.48;20.40
39411;BME280;26579;43.238;23.124;2023-02-19T10:47:06;97104.59;;;26.44;20.91
39411;BME280;26579;43.238;23.124;2023-02-19T10:49:39;97085.06;;;25.63;19.94
39411;BME280;26579;43.238;23.124;2023-02-19T10:52:16;97094.75;;;25.58;21.21
39411;BME280;26579;43.238;23.124;2023-02-19T10:54:45;97077.16;;;25.50;21.21
39411;BME280;26579;43.238;23.124;2023-02-19T10:59:48;97087.38;;;25.53;21.53
39411;BME280;26579;43.238;23.124;2023-02-19T11:02:19;97078.81;;;25.19;22.20
39411;BME280;26579;43.238;23.124;2023-02-19T11:07:51;97059.84;;;24.96;21.11
39411;BME280;26579;43.238;23.124;2023-02-19T11:10:29;97056.09;;;25.10;21.14
39411;BME280;26579;43.238;23.124;2023-02-19T11:12:59;97047.09;;;25.11;21.07
39411;BME280;26579;43.238;23.124;2023-02-19T11:15:33;97039.53;;;25.01;20.47
39411;BME280;26579;43.238;23.124;2023-02-19T11:21:21;97045.31;;;24.60;20.66
39411;BME280;26579;43.238;23.124;2023-02-19T11:23:48;97029.75;;;24.57;20.62
39411;BME280;26579;43.238;23.124;2023-02-19T11:26:19;97024.59;;;24.69;21.55
39411;BME280;26579;43.238;23.124;2023-02-19T11:28:55;97002.72;;;24.60;20.78
39411;BME280;26579;43.238;23.124;2023-02-19T11:38:55;97009.28;;;24.64;20.98
39411;BME280;26579;43.238;23.124;2023-02-19T11:52:08;96992.06;;;24.60;21.13
39411;BME280;26579;43.238;23.124;2023-02-19T11:54:53;96983.09;;;24.61;20.44
39411;BME280;26579;43.238;23.124;2023-02-19T12:02:52;96981.47;;;24.53;20.51
39411;BME280;26579;43.238;23.124;2023-02-19T12:13:14;96969.78;;;24.54;21.17
39411;BME280;26579;43.238;23.124;2023-02-19T12:15:51;96964.50;;;24.48;21.59
39411;BME280;26579;43.238;23.124;2023-02-19T12:18:28;96955.50;;;24.49;21.34
39411;BME280;26579;43.238;23.124;2023-02-19T12:21:35;96963.09;;;24.38;20.80
39411;BME280;26579;43.238;23.124;2023-02-19T12:24:26;96958.44;;;23.62;21.19
39411;BME280;26579;43.238;23.124;2023-02-19T12:32:20;96943.13;;;22.98;23.08
39411;BME280;26579;43.238;23.124;2023-02-19T12:41:17;96923.53;;;23.39;22.69
39411;BME280;26579;43.238;23.124;2023-02-19T12:43:25;96915.56;;;23.39;22.35
39411;BME280;26579;43.238;23.124;2023-02-19T12:50:55;96900.03;;;23.29;23.80
39411;BME280;26579;43.238;23.124;2023-02-19T12:53:33;96900.66;;;23.18;23.53
39411;BME280;26579;43.238;23.124;2023-02-19T12:56:07;96902.47;;;22.71;24.05
39411;BME280;26579;43.238;23.124;2023-02-19T12:58:40;96898.97;;;22.50;24.04
39411;BME280;26579;43.238;23.124;2023-02-19T13:01:11;96900.63;;;22.71;24.18
39411;BME280;26579;43.238;23.124;2023-02-19T13:03:42;96892.50;;;22.66;24.44
39411;BME280;26579;43.238;23.124;2023-02-19T13:06:34;96883.47;;;22.54;23.82
39411;BME280;26579;43.238;23.124;2023-02-19T13:09:38;96877.97;;;22.69;24.60
39411;BME280;26579;43.238;23.124;2023-02-19T13:12:14;96875.91;;;22.51;23.83
39411;BME280;26579;43.238;23.124;2023-02-19T13:14:53;96874.25;;;22.30;24.56
39411;BME280;26579;43.238;23.124;2023-02-19T13:17:54;96877.34;;;22.40;25.27
39411;BME280;26579;43.238;23.124;2023-02-19T13:20:30;96881.66;;;22.74;25.35
39411;BME280;26579;43.238;23.124;2023-02-19T13:23:03;96872.47;;;22.70;25.24
39411;BME280;26579;43.238;23.124;2023-02-19T13:26:02;96869.59;;;22.45;25.93
39411;BME280;26579;43.238;23.124;2023-02-19T13:37:15;96859.41;;;22.55;23.92
39411;BME280;26579;43.238;23.124;2023-02-19T13:40:03;96860.66;;;22.66;23.61
39411;BME280;26579;43.238;23.124;2023-02-19T13:42:35;96831.25;;;22.41;24.88
39411;BME280;26579;43.238;23.124;2023-02-19T13:45:03;96836.16;;;22.57;24.22
39411;BME280;26579;43.238;23.124;2023-02-19T13:50:27;96837.75;;;22.85;22.06
39411;BME280;26579;43.238;23.124;2023-02-19T13:52:55;96833.50;;;22.84;21.41
39411;BME280;26579;43.238;23.124;2023-02-19T13:55:57;96839.63;;;23.04;21.94
39411;BME280;26579;43.238;23.124;2023-02-19T14:01:18;96838.97;;;23.22;21.27
39411;BME280;26579;43.238;23.124;2023-02-19T14:04:06;96837.31;;;23.35;20.69
39411;BME280;26579;43.238;23.124;2023-02-19T14:25:33;96833.19;;;22.06;21.90
39411;BME280;26579;43.238;23.124;2023-02-19T14:33:17;96839.88;;;21.82;22.30
39411;BME280;26579;43.238;23.124;2023-02-19T14:35:46;96841.47;;;21.76;22.44
39411;BME280;26579;43.238;23.124;2023-02-19T14:38:17;96843.25;;;21.62;22.66
39411;BME280;26579;43.238;23.124;2023-02-19T14:40:45;96849.66;;;21.40;26.33
39411;BME280;26579;43.238;23.124;2023-02-19T14:43:14;96853.84;;;21.28;27.37
39411;BME280;26579;43.238;23.124;2023-02-19T14:45:47;96845.88;;;20.93;28.05
39411;BME280;26579;43.238;23.124;2023-02-19T14:48:27;96843.72;;;20.75;28.46
39411;BME280;26579;43.238;23.124;2023-02-19T14:51:01;96854.31;;;20.53;28.53
39411;BME280;26579;43.238;23.124;2023-02-19T14:53:28;96839.50;;;20.38;28.94
39411;BME280;26579;43.238;23.124;2023-02-19T14:55:55;96851.09;;;20.37;29.14
39411;BME280;26579;43.238;23.124;2023-02-19T14:58:29;96839.50;;;20.16;29.56
39411;BME280;26579;43.238;23.124;2023-02-19T15:00:56;96853.53;;;20.17;29.82
39411;BME280;26579;43.238;23.124;2023-02-19T15:05:56;96839.47;;;19.95;29.54